sensor_id;sensor_type;location;lat;lon;timestamp;P1;durP1;ratioP1;P2;durP2;ratioP2
21804;SDS011;11064;47.102;15.452;2023-03-13T05:03:55;7.28;;;4.38;;
21804;SDS011;11064;47.102;15.452;2023-03-13T05:06:21;8.82;;;4.90;;
21804;SDS011;11064;47.102;15.452;2023-03-13T05:08:46;5.85;;;4.32;;
21804;SDS011;11064;47.102;15.452;2023-03-13T05:11:12;7.63;;;4.43;;
21804;SDS011;11064;47.102;15.452;2023-03-13T05:13:38;6.47;;;3.95;;
21804;SDS011;11064;47.102;15.452;2023-03-13T05:16:04;7.32;;;4.65;;
21804;SDS011;11064;47.102;15.452;2023-03-13T05:18:30;6.95;;;4.53;;
21804;SDS011;11064;47.102;15.452;2023-03-13T05:20:56;7.80;;;4.57;;
21804;SDS011;11064;47.102;15.452;2023-03-13T05:23:22;8.07;;;4.50;;
21804;SDS011;11064;47.102;15.452;2023-03-13T05:25:48;7.10;;;4.07;;
21804;SDS011;11064;47.102;15.452;2023-03-13T05:28:14;6.90;;;4.18;;
21804;SDS011;11064;47.102;15.452;2023-03-13T05:30:40;6.25;;;4.45;;
21804;SDS011;11064;47.102;15.452;2023-03-13T05:33:06;7.75;;;4.60;;
21804;SDS011;11064;47.102;15.452;2023-03-13T05:35:31;7.78;;;4.03;;
21804;SDS011;11064;47.102;15.452;2023-03-13T05:37:57;6.13;;;4.03;;
21804;SDS011;11064;47.102;15.452;2023-03-13T05:40:23;7.43;;;3.85;;
21804;SDS011;11064;47.102;15.452;2023-03-13T05:42:48;5.75;;;4.13;;
21804;SDS011;11064;47.102;15.452;2023-03-13T05:45:14;8.10;;;4.28;;
21804;SDS011;11064;47.102;15.452;2023-03-13T05:47:40;7.78;;;4.03;;
21804;SDS011;11064;47.102;15.452;2023-03-13T05:50:06;7.72;;;4.57;;
21804;SDS011;11064;47.102;15.452;2023-03-13T05:52:33;7.75;;;3.92;;
21804;SDS011;11064;47.102;15.452;2023-03-13T05:54:59;8.43;;;4.25;;
21804;SDS011;11064;47.102;15.452;2023-03-13T05:57:25;5.97;;;3.80;;
21804;SDS011;11064;47.102;15.452;2023-03-13T05:59:50;7.18;;;4.05;;
21804;SDS011;11064;47.102;15.452;2023-03-13T06:02:16;6.70;;;4.28;;
21804;SDS011;11064;47.102;15.452;2023-03-13T06:04:42;7.70;;;4.07;;
21804;SDS011;11064;47.102;15.452;2023-03-13T06:07:08;6.28;;;3.65;;
21804;SDS011;11064;47.102;15.452;2023-03-13T06:09:33;5.72;;;3.83;;
21804;SDS011;11064;47.102;15.452;2023-03-13T06:11:59;6.03;;;4.10;;
21804;SDS011;11064;47.102;15.452;2023-03-13T06:14:25;5.93;;;3.97;;
21804;SDS011;11064;47.102;15.452;2023-03-13T06:16:52;7.25;;;3.95;;
21804;SDS011;11064;47.102;15.452;2023-03-13T06:19:19;6.15;;;3.95;;
21804;SDS011;11064;47.102;15.452;2023-03-13T06:21:45;6.75;;;3.88;;
21804;SDS011;11064;47.102;15.452;2023-03-13T06:24:11;5.25;;;3.70;;
21804;SDS011;11064;47.102;15.452;2023-03-13T06:26:37;5.57;;;3.70;;
21804;SDS011;11064;47.102;15.452;2023-03-13T06:29:02;5.53;;;3.60;;
21804;SDS011;11064;47.102;15.452;2023-03-13T06:31:28;6.57;;;4.10;;
21804;SDS011;11064;47.102;15.452;2023-03-13T06:33:54;6.25;;;3.83;;
21804;SDS011;11064;47.102;15.452;2023-03-13T06:36:23;7.00;;;3.75;;
21804;SDS011;11064;47.102;15.452;2023-03-13T06:38:50;5.32;;;3.33;;
21804;SDS011;11064;47.102;15.452;2023-03-13T06:41:16;6.75;;;3.88;;
21804;SDS011;11064;47.102;15.452;2023-03-13T06:43:41;6.68;;;3.78;;
21804;SDS011;11064;47.102;15.452;2023-03-13T06:46:07;6.20;;;3.75;;
21804;SDS011;11064;47.102;15.452;2023-03-13T06:48:39;7.63;;;3.90;;
21804;SDS011;11064;47.102;15.452;2023-03-13T06:51:09;5.78;;;3.42;;
21804;SDS011;11064;47.102;15.452;2023-03-13T06:53:40;7.32;;;4.28;;
21804;SDS011;11064;47.102;15.452;2023-03-13T06:56:06;5.38;;;3.63;;
21804;SDS011;11064;47.102;15.452;2023-03-13T06:58:33;6.38;;;3.63;;
21804;SDS011;11064;47.102;15.452;2023-03-13T07:01:04;5.00;;;3.58;;
21804;SDS011;11064;47.102;15.452;2023-03-13T07:03:35;6.20;;;3.00;;
21804;SDS011;11064;47.102;15.452;2023-03-13T07:06:02;6.35;;;3.67;;
21804;SDS011;11064;47.102;15.452;2023-03-13T07:08:30;4.07;;;3.15;;
21804;SDS011;11064;47.102;15.452;2023-03-13T07:11:01;4.85;;;3.20;;
21804;SDS011;11064;47.102;15.452;2023-03-13T07:13:28;8.48;;;3.67;;
21804;SDS011;11064;47.102;15.452;2023-03-13T07:15:54;9.57;;;3.72;;
21804;SDS011;11064;47.102;15.452;2023-03-13T07:18:21;5.38;;;3.25;;
21804;SDS011;11064;47.102;15.452;2023-03-13T07:20:51;6.50;;;3.67;;
21804;SDS011;11064;47.102;15.452;2023-03-13T07:23:21;6.25;;;3.55;;
21804;SDS011;11064;47.102;15.452;2023-03-13T07:25:55;7.47;;;3.78;;
21804;SDS011;11064;47.102;15.452;2023-03-13T07:28:27;6.63;;;3.58;;
21804;SDS011;11064;47.102;15.452;2023-03-13T07:31:01;5.25;;;3.63;;
21804;SDS011;11064;47.102;15.452;2023-03-13T07:33:32;5.53;;;3.35;;
21804;SDS011;11064;47.102;15.452;2023-03-13T07:35:58;6.18;;;3.72;;
21804;SDS011;11064;47.102;15.452;2023-03-13T07:38:24;7.25;;;3.80;;
21804;SDS011;11064;47.102;15.452;2023-03-13T07:40:50;5.97;;;3.38;;
21804;SDS011;11064;47.102;15.452;2023-03-13T07:43:17;7.90;;;3.75;;
21804;SDS011;11064;47.102;15.452;2023-03-13T07:46:00;5.68;;;3.42;;
21804;SDS011;11064;47.102;15.452;2023-03-13T07:48:32;5.30;;;3.45;;
21804;SDS011;11064;47.102;15.452;2023-03-13T07:51:07;5.75;;;3.35;;
21804;SDS011;11064;47.102;15.452;2023-03-13T07:53:35;13.32;;;3.30;;
21804;SDS011;11064;47.102;15.452;2023-03-13T07:56:02;6.00;;;3.47;;
21804;SDS011;11064;47.102;15.452;2023-03-13T07:58:33;5.57;;;3.60;;
21804;SDS011;11064;47.102;15.452;2023-03-13T08:03:32;4.90;;;3.28;;
21804;SDS011;11064;47.102;15.452;2023-03-13T08:06:01;9.32;;;3.50;;
21804;SDS011;11064;47.102;15.452;2023-03-13T08:08:29;6.20;;;3.70;;
21804;SDS011;11064;47.102;15.452;2023-03-13T08:11:02;5.75;;;3.63;;
21804;SDS011;11064;47.102;15.452;2023-03-13T08:13:43;8.80;;;3.95;;
21804;SDS011;11064;47.102;15.452;2023-03-13T08:16:10;6.18;;;3.80;;
21804;SDS011;11064;47.102;15.452;2023-03-13T08:18:41;5.93;;;3.63;;
21804;SDS011;11064;47.102;15.452;2023-03-13T08:21:13;8.57;;;3.97;;
21804;SDS011;11064;47.102;15.452;2023-03-13T08:23:40;7.97;;;4.20;;
21804;SDS011;11064;47.102;15.452;2023-03-13T08:26:07;6.68;;;3.42;;
21804;SDS011;11064;47.102;15.452;2023-03-13T08:28:38;6.00;;;3.80;;
21804;SDS011;11064;47.102;15.452;2023-03-13T08:31:15;6.32;;;3.95;;
21804;SDS011;11064;47.102;15.452;2023-03-13T08:33:42;8.50;;;4.15;;
21804;SDS011;11064;47.102;15.452;2023-03-13T08:36:14;5.75;;;3.80;;
21804;SDS011;11064;47.102;15.452;2023-03-13T08:38:45;6.20;;;3.60;;
21804;SDS011;11064;47.102;15.452;2023-03-13T08:41:16;5.72;;;3.92;;
21804;SDS011;11064;47.102;15.452;2023-03-13T08:43:44;9.45;;;3.72;;
21804;SDS011;11064;47.102;15.452;2023-03-13T08:46:11;6.88;;;3.95;;
21804;SDS011;11064;47.102;15.452;2023-03-13T08:48:37;6.63;;;4.10;;
21804;SDS011;11064;47.102;15.452;2023-03-13T08:51:13;5.05;;;3.72;;
21804;SDS011;11064;47.102;15.452;2023-03-13T08:53:40;6.00;;;3.90;;
21804;SDS011;11064;47.102;15.452;2023-03-13T08:56:11;5.97;;;3.55;;
21804;SDS011;11064;47.102;15.452;2023-03-13T08:58:39;5.45;;;3.63;;
21804;SDS011;11064;47.102;15.452;2023-03-13T09:01:09;6.65;;;4.00;;
21804;SDS011;11064;47.102;15.452;2023-03-13T09:03:37;5.72;;;4.10;;
21804;SDS011;11064;47.102;15.452;2023-03-13T09:06:04;7.80;;;3.90;;
21804;SDS011;11064;47.102;15.452;2023-03-13T09:08:31;6.53;;;4.38;;
21804;SDS011;11064;47.102;15.452;2023-03-13T09:11:01;5.70;;;3.78;;
21804;SDS011;11064;47.102;15.452;2023-03-13T09:13:32;6.60;;;3.78;;
21804;SDS011;11064;47.102;15.452;2023-03-13T09:16:04;10.80;;;4.63;;
21804;SDS011;11064;47.102;15.452;2023-03-13T09:18:36;7.35;;;4.63;;
21804;SDS011;11064;47.102;15.452;2023-03-13T09:21:04;7.25;;;4.15;;
21804;SDS011;11064;47.102;15.452;2023-03-13T09:23:31;7.82;;;4.00;;
21804;SDS011;11064;47.102;15.452;2023-03-13T09:25:57;7.38;;;3.80;;
21804;SDS011;11064;47.102;15.452;2023-03-13T09:28:23;8.98;;;3.78;;
21804;SDS011;11064;47.102;15.452;2023-03-13T09:30:50;7.60;;;3.50;;
21804;SDS011;11064;47.102;15.452;2023-03-13T09:33:16;6.15;;;3.67;;
21804;SDS011;11064;47.102;15.452;2023-03-13T09:35:43;5.47;;;3.40;;
21804;SDS011;11064;47.102;15.452;2023-03-13T09:38:14;7.65;;;4.40;;
21804;SDS011;11064;47.102;15.452;2023-03-13T09:43:35;10.52;;;5.30;;
21804;SDS011;11064;47.102;15.452;2023-03-13T09:46:01;8.00;;;4.93;;
21804;SDS011;11064;47.102;15.452;2023-03-13T09:51:05;10.95;;;5.78;;
21804;SDS011;11064;47.102;15.452;2023-03-13T09:54:08;11.45;;;5.18;;
21804;SDS011;11064;47.102;15.452;2023-03-13T10:02:00;14.18;;;5.70;;
21804;SDS011;11064;47.102;15.452;2023-03-13T10:04:39;10.40;;;5.40;;
21804;SDS011;11064;47.102;15.452;2023-03-13T10:07:10;10.10;;;5.60;;
21804;SDS011;11064;47.102;15.452;2023-03-13T10:09:36;9.98;;;4.60;;
21804;SDS011;11064;47.102;15.452;2023-03-13T10:17:52;7.72;;;4.80;;
21804;SDS011;11064;47.102;15.452;2023-03-13T10:20:27;12.15;;;5.15;;
21804;SDS011;11064;47.102;15.452;2023-03-13T10:25:56;8.88;;;5.57;;
21804;SDS011;11064;47.102;15.452;2023-03-13T10:28:23;11.55;;;5.40;;
21804;SDS011;11064;47.102;15.452;2023-03-13T10:30:52;10.10;;;5.82;;
21804;SDS011;11064;47.102;15.452;2023-03-13T10:33:26;9.18;;;5.65;;
21804;SDS011;11064;47.102;15.452;2023-03-13T10:36:00;10.18;;;5.82;;
21804;SDS011;11064;47.102;15.452;2023-03-13T10:38:31;10.15;;;6.07;;
21804;SDS011;11064;47.102;15.452;2023-03-13T10:41:00;8.10;;;5.30;;
21804;SDS011;11064;47.102;15.452;2023-03-13T10:43:53;11.35;;;5.90;;
21804;SDS011;11064;47.102;15.452;2023-03-13T10:46:29;8.85;;;5.55;;
21804;SDS011;11064;47.102;15.452;2023-03-13T10:48:59;11.20;;;5.60;;
21804;SDS011;11064;47.102;15.452;2023-03-13T10:51:33;12.10;;;5.22;;
21804;SDS011;11064;47.102;15.452;2023-03-13T10:59:42;11.45;;;5.13;;
21804;SDS011;11064;47.102;15.452;2023-03-13T11:02:35;10.95;;;5.03;;
21804;SDS011;11064;47.102;15.452;2023-03-13T11:07:48;8.40;;;4.57;;
21804;SDS011;11064;47.102;15.452;2023-03-13T11:12:43;8.25;;;4.95;;
21804;SDS011;11064;47.102;15.452;2023-03-13T11:15:15;9.13;;;4.90;;
21804;SDS011;11064;47.102;15.452;2023-03-13T11:18:06;10.40;;;4.88;;
21804;SDS011;11064;47.102;15.452;2023-03-13T11:20:43;8.82;;;5.05;;
21804;SDS011;11064;47.102;15.452;2023-03-13T11:25:49;11.68;;;4.90;;
21804;SDS011;11064;47.102;15.452;2023-03-13T11:28:34;8.25;;;4.78;;
21804;SDS011;11064;47.102;15.452;2023-03-13T11:31:28;8.98;;;5.30;;
21804;SDS011;11064;47.102;15.452;2023-03-13T11:37:22;8.52;;;4.85;;
21804;SDS011;11064;47.102;15.452;2023-03-13T11:43:31;5.82;;;4.28;;
21804;SDS011;11064;47.102;15.452;2023-03-13T11:46:10;11.93;;;5.43;;
21804;SDS011;11064;47.102;15.452;2023-03-13T11:54:44;12.73;;;4.90;;
21804;SDS011;11064;47.102;15.452;2023-03-13T11:57:27;8.95;;;4.70;;
21804;SDS011;11064;47.102;15.452;2023-03-13T12:02:40;7.47;;;4.50;;
21804;SDS011;11064;47.102;15.452;2023-03-13T12:05:20;6.75;;;4.60;;
21804;SDS011;11064;47.102;15.452;2023-03-13T12:10:36;9.05;;;4.20;;
21804;SDS011;11064;47.102;15.452;2023-03-13T12:13:20;11.50;;;4.70;;
21804;SDS011;11064;47.102;15.452;2023-03-13T12:15:53;9.07;;;4.13;;
21804;SDS011;11064;47.102;15.452;2023-03-13T12:18:30;6.85;;;4.28;;
21804;SDS011;11064;47.102;15.452;2023-03-13T12:23:49;6.75;;;4.10;;
21804;SDS011;11064;47.102;15.452;2023-03-13T12:26:44;7.80;;;3.80;;
21804;SDS011;11064;47.102;15.452;2023-03-13T12:32:21;6.60;;;3.75;;
21804;SDS011;11064;47.102;15.452;2023-03-13T12:35:14;5.47;;;3.83;;
21804;SDS011;11064;47.102;15.452;2023-03-13T12:38:13;6.63;;;3.80;;
21804;SDS011;11064;47.102;15.452;2023-03-13T12:40:49;7.47;;;3.90;;
21804;SDS011;11064;47.102;15.452;2023-03-13T12:43:38;5.40;;;4.10;;
21804;SDS011;11064;47.102;15.452;2023-03-13T12:54:39;5.22;;;3.72;;
21804;SDS011;11064;47.102;15.452;2023-03-13T12:57:23;7.72;;;4.30;;
21804;SDS011;11064;47.102;15.452;2023-03-13T13:00:13;6.97;;;3.80;;
21804;SDS011;11064;47.102;15.452;2023-03-13T13:02:59;5.13;;;3.78;;
21804;SDS011;11064;47.102;15.452;2023-03-13T13:05:56;6.55;;;4.20;;
21804;SDS011;11064;47.102;15.452;2023-03-13T13:08:24;8.48;;;4.15;;
21804;SDS011;11064;47.102;15.452;2023-03-13T13:10:51;7.05;;;4.15;;
21804;SDS011;11064;47.102;15.452;2023-03-13T13:13:29;6.78;;;4.32;;
21804;SDS011;11064;47.102;15.452;2023-03-13T13:15:59;5.63;;;4.38;;
21804;SDS011;11064;47.102;15.452;2023-03-13T13:18:32;5.15;;;3.90;;
21804;SDS011;11064;47.102;15.452;2023-03-13T13:23:29;5.60;;;3.72;;
21804;SDS011;11064;47.102;15.452;2023-03-13T13:28:50;6.00;;;3.38;;
21804;SDS011;11064;47.102;15.452;2023-03-13T13:32:07;5.45;;;3.50;;
21804;SDS011;11064;47.102;15.452;2023-03-13T13:37:02;3.67;;;3.17;;
21804;SDS011;11064;47.102;15.452;2023-03-13T13:39:48;4.90;;;3.50;;
21804;SDS011;11064;47.102;15.452;2023-03-13T13:45:02;5.43;;;3.38;;
21804;SDS011;11064;47.102;15.452;2023-03-13T13:47:41;5.72;;;2.72;;
21804;SDS011;11064;47.102;15.452;2023-03-13T13:50:17;6.32;;;2.65;;
21804;SDS011;11064;47.102;15.452;2023-03-13T13:52:45;4.63;;;2.45;;
21804;SDS011;11064;47.102;15.452;2023-03-13T13:58:03;3.47;;;2.13;;
21804;SDS011;11064;47.102;15.452;2023-03-13T14:00:45;3.65;;;2.30;;
21804;SDS011;11064;47.102;15.452;2023-03-13T14:03:24;2.97;;;2.20;;
21804;SDS011;11064;47.102;15.452;2023-03-13T14:05:58;3.28;;;2.20;;
21804;SDS011;11064;47.102;15.452;2023-03-13T14:08:39;3.13;;;2.10;;
21804;SDS011;11064;47.102;15.452;2023-03-13T14:14:17;3.33;;;2.17;;
21804;SDS011;11064;47.102;15.452;2023-03-13T14:16:45;5.50;;;2.47;;
21804;SDS011;11064;47.102;15.452;2023-03-13T14:21:47;3.25;;;2.28;;
21804;SDS011;11064;47.102;15.452;2023-03-13T14:24:14;3.88;;;2.58;;
21804;SDS011;11064;47.102;15.452;2023-03-13T14:26:42;4.43;;;2.47;;
21804;SDS011;11064;47.102;15.452;2023-03-13T14:29:14;3.20;;;2.40;;
21804;SDS011;11064;47.102;15.452;2023-03-13T14:31:54;4.82;;;2.83;;
21804;SDS011;11064;47.102;15.452;2023-03-13T14:34:22;4.43;;;2.80;;
21804;SDS011;11064;47.102;15.452;2023-03-13T14:36:50;4.07;;;2.30;;
21804;SDS011;11064;47.102;15.452;2023-03-13T14:39:19;4.28;;;2.58;;
21804;SDS011;11064;47.102;15.452;2023-03-13T14:42:30;5.97;;;2.83;;
21804;SDS011;11064;47.102;15.452;2023-03-13T14:44:48;5.03;;;2.50;;
21804;SDS011;11064;47.102;15.452;2023-03-13T14:49:45;5.75;;;2.63;;
21804;SDS011;11064;47.102;15.452;2023-03-13T14:52:24;5.97;;;2.90;;
21804;SDS011;11064;47.102;15.452;2023-03-13T14:57:25;4.57;;;3.17;;
21804;SDS011;11064;47.102;15.452;2023-03-13T14:59:51;7.70;;;3.40;;
21804;SDS011;11064;47.102;15.452;2023-03-13T15:02:22;6.78;;;3.33;;
21804;SDS011;11064;47.102;15.452;2023-03-13T15:05:04;12.63;;;3.20;;
21804;SDS011;11064;47.102;15.452;2023-03-13T15:07:47;5.03;;;3.00;;
21804;SDS011;11064;47.102;15.452;2023-03-13T15:10:31;4.20;;;2.85;;
21804;SDS011;11064;47.102;15.452;2023-03-13T15:13:22;5.07;;;3.13;;
21804;SDS011;11064;47.102;15.452;2023-03-13T15:16:04;4.97;;;3.08;;
21804;SDS011;11064;47.102;15.452;2023-03-13T15:18:39;4.50;;;3.15;;
21804;SDS011;11064;47.102;15.452;2023-03-13T15:23:37;5.78;;;2.90;;
21804;SDS011;11064;47.102;15.452;2023-03-13T15:26:04;4.70;;;2.58;;
21804;SDS011;11064;47.102;15.452;2023-03-13T15:28:30;4.80;;;2.95;;
21804;SDS011;11064;47.102;15.452;2023-03-13T15:30:57;5.13;;;3.30;;
21804;SDS011;11064;47.102;15.452;2023-03-13T15:33:23;4.93;;;3.13;;
21804;SDS011;11064;47.102;15.452;2023-03-13T15:35:52;7.15;;;2.95;;
21804;SDS011;11064;47.102;15.452;2023-03-13T15:38:19;4.15;;;2.55;;
21804;SDS011;11064;47.102;15.452;2023-03-13T15:40:50;4.95;;;2.88;;
21804;SDS011;11064;47.102;15.452;2023-03-13T15:43:17;4.50;;;2.83;;
21804;SDS011;11064;47.102;15.452;2023-03-13T15:45:44;4.40;;;2.80;;
21804;SDS011;11064;47.102;15.452;2023-03-13T15:50:52;4.15;;;2.55;;
21804;SDS011;11064;47.102;15.452;2023-03-13T15:53:30;5.18;;;2.58;;
21804;SDS011;11064;47.102;15.452;2023-03-13T15:55:58;5.05;;;2.80;;
21804;SDS011;11064;47.102;15.452;2023-03-13T15:58:26;4.07;;;2.75;;
21804;SDS011;11064;47.102;15.452;2023-03-13T16:00:53;5.40;;;2.83;;
21804;SDS011;11064;47.102;15.452;2023-03-13T16:03:21;4.40;;;2.65;;
21804;SDS011;11064;47.102;15.452;2023-03-13T16:05:49;4.13;;;2.60;;
21804;SDS011;11064;47.102;15.452;2023-03-13T16:08:17;5.40;;;2.50;;
21804;SDS011;11064;47.102;15.452;2023-03-13T16:10:45;5.72;;;2.75;;
21804;SDS011;11064;47.102;15.452;2023-03-13T16:13:11;4.50;;;2.50;;
21804;SDS011;11064;47.102;15.452;2023-03-13T16:15:37;5.70;;;2.53;;
21804;SDS011;11064;47.102;15.452;2023-03-13T16:18:03;4.70;;;2.72;;
21804;SDS011;11064;47.102;15.452;2023-03-13T16:20:30;5.00;;;2.72;;
21804;SDS011;11064;47.102;15.452;2023-03-13T16:22:57;9.75;;;4.20;;
21804;SDS011;11064;47.102;15.452;2023-03-13T16:25:27;7.10;;;3.67;;
21804;SDS011;11064;47.102;15.452;2023-03-13T16:27:54;8.80;;;4.70;;
21804;SDS011;11064;47.102;15.452;2023-03-13T16:30:22;11.75;;;5.38;;
21804;SDS011;11064;47.102;15.452;2023-03-13T16:32:50;8.18;;;4.40;;
21804;SDS011;11064;47.102;15.452;2023-03-13T16:35:16;10.27;;;4.40;;
21804;SDS011;11064;47.102;15.452;2023-03-13T16:37:42;4.88;;;3.30;;
21804;SDS011;11064;47.102;15.452;2023-03-13T16:42:45;8.35;;;4.22;;
21804;SDS011;11064;47.102;15.452;2023-03-13T16:45:11;4.97;;;3.20;;
21804;SDS011;11064;47.102;15.452;2023-03-13T16:47:38;8.15;;;3.83;;
21804;SDS011;11064;47.102;15.452;2023-03-13T16:52:53;8.43;;;2.40;;
21804;SDS011;11064;47.102;15.452;2023-03-13T16:55:20;3.95;;;2.45;;
21804;SDS011;11064;47.102;15.452;2023-03-13T16:57:52;4.45;;;2.70;;
21804;SDS011;11064;47.102;15.452;2023-03-13T17:00:20;4.10;;;2.53;;
21804;SDS011;11064;47.102;15.452;2023-03-13T17:02:48;5.57;;;2.72;;
21804;SDS011;11064;47.102;15.452;2023-03-13T17:05:14;4.50;;;2.58;;
21804;SDS011;11064;47.102;15.452;2023-03-13T17:07:44;5.18;;;2.80;;
21804;SDS011;11064;47.102;15.452;2023-03-13T17:10:28;5.50;;;3.97;;
21804;SDS011;11064;47.102;15.452;2023-03-13T17:12:55;6.15;;;3.35;;
21804;SDS011;11064;47.102;15.452;2023-03-13T17:15:22;5.80;;;3.40;;
21804;SDS011;11064;47.102;15.452;2023-03-13T17:17:48;6.80;;;3.08;;
21804;SDS011;11064;47.102;15.452;2023-03-13T17:20:16;8.10;;;3.15;;
21804;SDS011;11064;47.102;15.452;2023-03-13T17:22:44;7.00;;;2.65;;
21804;SDS011;11064;47.102;15.452;2023-03-13T17:25:10;7.13;;;3.17;;
21804;SDS011;11064;47.102;15.452;2023-03-13T17:27:37;7.97;;;3.30;;
21804;SDS011;11064;47.102;15.452;2023-03-13T17:30:37;6.25;;;3.00;;
21804;SDS011;11064;47.102;15.452;2023-03-13T17:32:58;4.28;;;2.88;;
21804;SDS011;11064;47.102;15.452;2023-03-13T17:35:24;6.47;;;3.05;;
21804;SDS011;11064;47.102;15.452;2023-03-13T17:37:51;6.70;;;3.30;;
21804;SDS011;11064;47.102;15.452;2023-03-13T17:40:18;7.82;;;3.13;;
21804;SDS011;11064;47.102;15.452;2023-03-13T17:42:49;10.00;;;3.50;;
21804;SDS011;11064;47.102;15.452;2023-03-13T17:45:15;5.47;;;3.22;;
21804;SDS011;11064;47.102;15.452;2023-03-13T17:47:42;7.00;;;3.10;;
21804;SDS011;11064;47.102;15.452;2023-03-13T17:50:19;5.00;;;3.38;;
21804;SDS011;11064;47.102;15.452;2023-03-13T17:52:47;6.13;;;3.25;;
21804;SDS011;11064;47.102;15.452;2023-03-13T17:55:13;6.15;;;3.50;;
21804;SDS011;11064;47.102;15.452;2023-03-13T17:57:40;6.18;;;3.33;;
21804;SDS011;11064;47.102;15.452;2023-03-13T18:00:13;6.15;;;3.67;;
21804;SDS011;11064;47.102;15.452;2023-03-13T18:02:53;5.75;;;3.90;;
21804;SDS011;11064;47.102;15.452;2023-03-13T18:05:19;6.57;;;4.30;;
21804;SDS011;11064;47.102;15.452;2023-03-13T18:07:45;7.20;;;3.50;;
21804;SDS011;11064;47.102;15.452;2023-03-13T18:10:15;6.82;;;3.65;;
21804;SDS011;11064;47.102;15.452;2023-03-13T18:12:47;4.57;;;3.00;;
21804;SDS011;11064;47.102;15.452;2023-03-13T18:15:13;5.78;;;3.08;;
21804;SDS011;11064;47.102;15.452;2023-03-13T18:17:39;5.18;;;2.75;;
21804;SDS011;11064;47.102;15.452;2023-03-13T18:20:09;3.30;;;2.60;;
21804;SDS011;11064;47.102;15.452;2023-03-13T18:22:39;6.22;;;3.35;;
21804;SDS011;11064;47.102;15.452;2023-03-13T18:25:06;4.45;;;3.40;;
21804;SDS011;11064;47.102;15.452;2023-03-13T18:27:33;4.97;;;3.40;;
21804;SDS011;11064;47.102;15.452;2023-03-13T18:29:59;8.13;;;3.70;;
21804;SDS011;11064;47.102;15.452;2023-03-13T18:32:25;17.13;;;3.83;;
21804;SDS011;11064;47.102;15.452;2023-03-13T18:34:51;8.90;;;4.00;;
21804;SDS011;11064;47.102;15.452;2023-03-13T18:39:58;6.87;;;3.30;;
21804;SDS011;11064;47.102;15.452;2023-03-13T18:42:25;7.30;;;3.67;;
21804;SDS011;11064;47.102;15.452;2023-03-13T18:44:51;7.13;;;3.47;;
21804;SDS011;11064;47.102;15.452;2023-03-13T18:47:20;5.55;;;3.42;;
21804;SDS011;11064;47.102;15.452;2023-03-13T18:49:49;5.13;;;3.42;;
21804;SDS011;11064;47.102;15.452;2023-03-13T18:52:15;6.40;;;3.78;;
21804;SDS011;11064;47.102;15.452;2023-03-13T18:54:42;7.75;;;4.15;;
21804;SDS011;11064;47.102;15.452;2023-03-13T18:57:16;8.98;;;4.55;;
21804;SDS011;11064;47.102;15.452;2023-03-13T18:59:43;6.20;;;3.88;;
21804;SDS011;11064;47.102;15.452;2023-03-13T19:02:14;7.75;;;3.60;;
21804;SDS011;11064;47.102;15.452;2023-03-13T19:04:43;6.30;;;3.58;;
21804;SDS011;11064;47.102;15.452;2023-03-13T19:07:15;12.30;;;3.78;;
21804;SDS011;11064;47.102;15.452;2023-03-13T19:09:48;7.65;;;3.92;;
21804;SDS011;11064;47.102;15.452;2023-03-13T19:12:15;5.97;;;3.55;;
21804;SDS011;11064;47.102;15.452;2023-03-13T19:14:41;9.23;;;4.05;;
21804;SDS011;11064;47.102;15.452;2023-03-13T19:17:21;5.82;;;3.50;;
21804;SDS011;11064;47.102;15.452;2023-03-13T19:19:52;10.38;;;3.80;;
21804;SDS011;11064;47.102;15.452;2023-03-13T19:22:22;7.18;;;3.55;;
21804;SDS011;11064;47.102;15.452;2023-03-13T19:24:49;6.25;;;3.60;;
21804;SDS011;11064;47.102;15.452;2023-03-13T19:27:15;5.35;;;3.65;;
21804;SDS011;11064;47.102;15.452;2023-03-13T19:29:43;5.13;;;3.50;;
21804;SDS011;11064;47.102;15.452;2023-03-13T19:32:13;6.38;;;3.40;;
21804;SDS011;11064;47.102;15.452;2023-03-13T19:34:43;4.85;;;3.28;;
21804;SDS011;11064;47.102;15.452;2023-03-13T19:37:10;6.53;;;3.75;;
21804;SDS011;11064;47.102;15.452;2023-03-13T19:39:43;8.52;;;3.75;;
21804;SDS011;11064;47.102;15.452;2023-03-13T19:42:10;8.93;;;3.70;;
21804;SDS011;11064;47.102;15.452;2023-03-13T19:44:36;8.60;;;4.18;;
21804;SDS011;11064;47.102;15.452;2023-03-13T19:47:04;7.50;;;4.10;;
21804;SDS011;11064;47.102;15.452;2023-03-13T19:49:30;6.57;;;4.00;;
21804;SDS011;11064;47.102;15.452;2023-03-13T19:51:57;6.55;;;4.00;;
21804;SDS011;11064;47.102;15.452;2023-03-13T19:54:24;6.20;;;3.90;;
21804;SDS011;11064;47.102;15.452;2023-03-13T19:56:50;8.15;;;4.05;;
21804;SDS011;11064;47.102;15.452;2023-03-13T19:59:21;5.75;;;3.95;;
21804;SDS011;11064;47.102;15.452;2023-03-13T20:01:52;6.00;;;3.88;;
21804;SDS011;11064;47.102;15.452;2023-03-13T20:04:21;8.63;;;4.03;;
21804;SDS011;11064;47.102;15.452;2023-03-13T20:06:49;8.52;;;3.92;;
21804;SDS011;11064;47.102;15.452;2023-03-13T20:09:16;7.38;;;4.22;;
21804;SDS011;11064;47.102;15.452;2023-03-13T20:11:44;6.55;;;4.30;;
21804;SDS011;11064;47.102;15.452;2023-03-13T20:14:12;8.25;;;4.70;;
21804;SDS011;11064;47.102;15.452;2023-03-13T20:16:39;9.07;;;4.28;;
21804;SDS011;11064;47.102;15.452;2023-03-13T20:19:05;6.90;;;4.75;;
21804;SDS011;11064;47.102;15.452;2023-03-13T20:21:32;7.68;;;4.78;;
21804;SDS011;11064;47.102;15.452;2023-03-13T20:24:00;10.00;;;4.65;;
21804;SDS011;11064;47.102;15.452;2023-03-13T20:26:27;7.28;;;4.85;;
21804;SDS011;11064;47.102;15.452;2023-03-13T20:28:54;8.88;;;4.55;;
21804;SDS011;11064;47.102;15.452;2023-03-13T20:31:22;8.25;;;4.40;;
21804;SDS011;11064;47.102;15.452;2023-03-13T20:33:50;8.13;;;4.43;;
21804;SDS011;11064;47.102;15.452;2023-03-13T20:36:17;7.13;;;4.57;;
21804;SDS011;11064;47.102;15.452;2023-03-13T20:38:44;8.70;;;4.68;;
21804;SDS011;11064;47.102;15.452;2023-03-13T20:41:11;7.38;;;4.47;;
21804;SDS011;11064;47.102;15.452;2023-03-13T20:43:37;9.25;;;5.10;;
21804;SDS011;11064;47.102;15.452;2023-03-13T20:46:04;8.02;;;4.32;;
21804;SDS011;11064;47.102;15.452;2023-03-13T20:48:34;9.03;;;4.53;;
21804;SDS011;11064;47.102;15.452;2023-03-13T20:51:03;9.93;;;4.70;;
21804;SDS011;11064;47.102;15.452;2023-03-13T20:53:33;7.30;;;4.60;;
21804;SDS011;11064;47.102;15.452;2023-03-13T20:56:01;8.27;;;4.77;;
21804;SDS011;11064;47.102;15.452;2023-03-13T20:58:28;5.70;;;3.70;;
21804;SDS011;11064;47.102;15.452;2023-03-13T21:00:56;6.30;;;3.70;;
21804;SDS011;11064;47.102;15.452;2023-03-13T21:05:51;6.38;;;4.13;;
21804;SDS011;11064;47.102;15.452;2023-03-13T21:08:17;6.57;;;4.28;;
21804;SDS011;11064;47.102;15.452;2023-03-13T21:10:44;6.65;;;4.47;;
21804;SDS011;11064;47.102;15.452;2023-03-13T21:13:10;9.98;;;4.50;;
21804;SDS011;11064;47.102;15.452;2023-03-13T21:15:36;8.20;;;4.55;;
21804;SDS011;11064;47.102;15.452;2023-03-13T21:18:04;6.63;;;4.38;;
21804;SDS011;11064;47.102;15.452;2023-03-13T21:20:30;7.13;;;4.47;;
21804;SDS011;11064;47.102;15.452;2023-03-13T21:22:57;6.53;;;4.68;;
21804;SDS011;11064;47.102;15.452;2023-03-13T21:25:23;8.80;;;4.50;;
21804;SDS011;11064;47.102;15.452;2023-03-13T21:27:49;8.60;;;4.72;;
21804;SDS011;11064;47.102;15.452;2023-03-13T21:30:17;8.02;;;4.75;;
21804;SDS011;11064;47.102;15.452;2023-03-13T21:32:44;11.05;;;5.20;;
21804;SDS011;11064;47.102;15.452;2023-03-13T21:35:11;6.57;;;4.57;;
21804;SDS011;11064;47.102;15.452;2023-03-13T21:37:38;7.25;;;4.40;;
21804;SDS011;11064;47.102;15.452;2023-03-13T21:40:04;9.73;;;4.07;;
21804;SDS011;11064;47.102;15.452;2023-03-13T21:42:32;8.52;;;4.82;;